Time;durP1;ratioP1;P1;durP2;ratioP2;P2;SDS_P1;SDS_P2;PMS_P1;PMS_P2;Temp;Humidity;BMP_temperature;BMP_pressure;BME280_temperature;BME280_humidity;BME280_pressure;Samples;Min_cycle;Max_cycle;Signal;HPM_P1;HPM_P2
2023/02/17 00:01:28;;;;;;;5.35;4.43;;;7.50;99.90;;;;;;5040440;28;20230;-70
2023/02/17 00:03:56;;;;;;;4.30;3.90;;;7.50;99.90;;;;;;5038167;28;20306;-70
2023/02/17 00:06:26;;;;;;;4.00;3.63;;;7.50;99.90;;;;;;5042601;28;20229;-70
2023/02/17 00:08:55;;;;;;;5.30;3.17;;;7.60;99.90;;;;;;5046322;28;20216;-70
2023/02/17 00:11:23;;;;;;;4.70;3.63;;;7.50;99.90;;;;;;5040311;28;20249;-70
2023/02/17 00:13:52;;;;;;;4.20;3.20;;;7.50;99.90;;;;;;5030942;28;20461;-70
2023/02/17 00:16:26;;;;;;;4.25;3.10;;;7.50;99.90;;;;;;5040196;28;20232;-70
2023/02/17 00:18:56;;;;;;;4.65;4.05;;;7.50;99.90;;;;;;5043379;28;20195;-70
2023/02/17 00:21:27;;;;;;;4.22;3.83;;;7.60;99.90;;;;;;5046255;28;20298;-70
2023/02/17 00:23:56;;;;;;;3.80;3.50;;;7.50;99.90;;;;;;5042735;28;20194;-70
2023/02/17 00:26:25;;;;;;;3.90;3.50;;;7.50;99.90;;;;;;5040659;28;20710;-70
2023/02/17 00:28:53;;;;;;;4.95;3.47;;;7.60;99.90;;;;;;5060466;28;20296;-70
2023/02/17 00:31:23;;;;;;;3.80;3.40;;;7.60;99.90;;;;;;5040539;28;20277;-70
2023/02/17 00:33:55;;;;;;;4.00;3.60;;;7.60;99.90;;;;;;5040207;28;20284;-70
2023/02/17 00:36:25;;;;;;;4.75;3.30;;;7.60;99.90;;;;;;5044494;28;20264;-70
2023/02/17 00:38:55;;;;;;;3.80;3.15;;;7.60;99.90;;;;;;5044371;28;20247;-70
2023/02/17 00:41:25;;;;;;;3.58;3.10;;;7.60;99.90;;;;;;5038136;28;20642;-70
2023/02/17 00:43:53;;;;;;;4.10;3.67;;;7.60;99.90;;;;;;5059234;28;20194;-70
2023/02/17 00:46:22;;;;;;;5.10;3.22;;;7.60;99.90;;;;;;5037243;28;20284;-70
2023/02/17 00:48:53;;;;;;;3.42;3.13;;;7.60;99.90;;;;;;5038790;28;20201;-70
2023/02/17 00:51:23;;;;;;;5.05;3.10;;;7.60;99.90;;;;;;5066353;28;20229;-70
2023/02/17 00:53:52;;;;;;;3.60;3.30;;;7.60;99.90;;;;;;5049545;28;20198;-70
2023/02/17 00:56:20;;;;;;;3.90;3.50;;;7.60;99.90;;;;;;5044381;28;20250;-70
2023/02/17 00:58:48;;;;;;;3.75;3.45;;;7.60;99.90;;;;;;5049104;28;20198;-69
2023/02/17 01:01:17;;;;;;;3.45;3.15;;;7.60;99.90;;;;;;5046500;28;20199;-70
2023/02/17 01:03:45;;;;;;;3.95;3.30;;;7.60;99.90;;;;;;5046768;28;20196;-70
2023/02/17 01:06:22;;;;;;;4.40;3.40;;;7.60;99.90;;;;;;5045945;28;20230;-70
2023/02/17 01:08:52;;;;;;;3.42;3.13;;;7.60;99.90;;;;;;5046972;28;20194;-70
2023/02/17 01:11:22;;;;;;;3.70;3.40;;;7.60;99.90;;;;;;5050219;28;20297;-70
2023/02/17 01:13:52;;;;;;;3.80;3.45;;;7.60;99.90;;;;;;5061116;28;20541;-70
2023/02/17 01:16:23;;;;;;;5.65;3.55;;;7.60;99.90;;;;;;5049562;28;20264;-70
2023/02/17 01:18:52;;;;;;;4.53;3.45;;;7.60;99.90;;;;;;5043597;28;20195;-70
2023/02/17 01:21:22;;;;;;;3.20;2.90;;;7.60;99.90;;;;;;5039021;28;20232;-70
2023/02/17 01:23:53;;;;;;;3.63;3.10;;;7.60;99.90;;;;;;5042724;28;20309;-70
2023/02/17 01:26:23;;;;;;;3.60;3.30;;;7.60;99.90;;;;;;5047638;28;20251;-70
2023/02/17 01:28:54;;;;;;;4.57;3.38;;;7.60;99.90;;;;;;5045740;28;20481;-70
2023/02/17 01:31:25;;;;;;;4.10;3.10;;;7.60;99.90;;;;;;5046109;28;20223;-70
2023/02/17 01:33:55;;;;;;;3.15;2.85;;;7.60;99.90;;;;;;5046082;28;20470;-70
2023/02/17 01:36:24;;;;;;;3.78;3.38;;;7.60;99.90;;;;;;5047794;28;20733;-70
2023/02/17 01:38:54;;;;;;;4.13;3.60;;;7.60;99.90;;;;;;5065211;28;20199;-70
2023/02/17 01:41:26;;;;;;;3.83;3.40;;;7.60;99.90;;;;;;5037181;28;20272;-70
2023/02/17 01:44:17;;;;;;;3.13;2.92;;;7.60;99.90;;;;;;5062806;28;20503;-70
2023/02/17 01:46:47;;;;;;;3.10;2.80;;;7.60;99.90;;;;;;5044175;28;20257;-70
2023/02/17 01:49:27;;;;;;;3.97;3.58;;;7.60;99.90;;;;;;5048078;28;20191;-70
2023/02/17 01:52:00;;;;;;;3.42;2.90;;;7.70;99.90;;;;;;5047604;28;20306;-70
2023/02/17 01:54:36;;;;;;;3.15;2.65;;;7.70;99.90;;;;;;5049530;28;20196;-70
2023/02/17 01:57:08;;;;;;;3.47;3.15;;;7.70;99.90;;;;;;5036461;28;20226;-70
2023/02/17 01:59:37;;;;;;;4.60;3.72;;;7.70;99.90;;;;;;5057616;28;20198;-70
2023/02/17 02:02:06;;;;;;;4.75;3.47;;;7.60;99.90;;;;;;5039377;28;20246;-70
2023/02/17 02:04:38;;;;;;;3.80;2.80;;;7.70;99.90;;;;;;5050039;28;20728;-70
2023/02/17 02:07:14;;;;;;;4.20;3.83;;;7.70;99.90;;;;;;5037888;28;20280;-70
2023/02/17 02:09:47;;;;;;;3.05;2.85;;;7.70;99.90;;;;;;5046365;28;20285;-70
2023/02/17 02:12:19;;;;;;;3.35;3.05;;;7.70;99.90;;;;;;5040357;28;20232;-70
2023/02/17 02:14:49;;;;;;;3.45;2.95;;;7.70;99.90;;;;;;5060372;28;20483;-70
2023/02/17 02:17:27;;;;;;;3.85;3.00;;;7.70;99.90;;;;;;5034700;28;20257;-70
2023/02/17 02:20:33;;;;;;;4.03;3.17;;;7.70;99.90;;;;;;5045842;28;20263;-70
2023/02/17 02:23:17;;;;;;;4.22;3.15;;;7.70;99.90;;;;;;5038950;28;20229;-70
2023/02/17 02:26:05;;;;;;;4.00;3.37;;;7.70;99.90;;;;;;5042771;28;20977;-70
2023/02/17 02:28:46;;;;;;;4.55;3.22;;;7.70;99.90;;;;;;5037970;28;20441;-70
2023/02/17 02:31:28;;;;;;;3.65;3.35;;;7.70;99.90;;;;;;5040004;28;20253;-70
2023/02/17 02:34:03;;;;;;;3.67;3.38;;;7.70;99.90;;;;;;5046099;28;20215;-70
2023/02/17 02:36:35;;;;;;;3.08;2.78;;;7.70;99.90;;;;;;5038543;28;20245;-70
2023/02/17 02:39:09;;;;;;;4.85;3.60;;;7.70;99.90;;;;;;5048671;28;20678;-70
2023/02/17 02:41:41;;;;;;;3.92;3.05;;;7.70;99.90;;;;;;5037448;28;20279;-70
2023/02/17 02:44:15;;;;;;;4.05;3.42;;;7.70;99.90;;;;;;5041062;28;20217;-70
2023/02/17 02:46:43;;;;;;;3.47;3.10;;;7.70;99.90;;;;;;5038423;28;20281;-70
2023/02/17 02:49:13;;;;;;;2.90;2.70;;;7.70;99.90;;;;;;5043377;28;20475;-70
2023/02/17 02:51:49;;;;;;;5.10;3.15;;;7.70;99.90;;;;;;5043542;28;20233;-70
2023/02/17 02:54:41;;;;;;;3.65;3.35;;;7.70;99.90;;;;;;5047037;28;20312;-70
2023/02/17 02:57:22;;;;;;;3.10;2.80;;;7.70;99.90;;;;;;5044251;28;20226;-70
2023/02/17 03:00:04;;;;;;;3.20;2.90;;;7.70;99.90;;;;;;5047126;28;20205;-70
2023/02/17 03:02:39;;;;;;;4.35;2.95;;;7.70;99.90;;;;;;5037463;28;20227;-70
2023/02/17 03:05:13;;;;;;;4.35;3.20;;;7.70;99.90;;;;;;5045835;28;20225;-70
2023/02/17 03:07:49;;;;;;;2.80;2.60;;;7.70;99.90;;;;;;5046457;28;20218;-70
2023/02/17 03:10:17;;;;;;;3.00;2.70;;;7.70;99.90;;;;;;5049605;28;20201;-70
2023/02/17 03:12:46;;;;;;;3.10;2.80;;;7.70;99.90;;;;;;5036305;28;20228;-70
2023/02/17 03:15:18;;;;;;;3.83;3.42;;;7.70;99.90;;;;;;5044499;28;20735;-70
2023/02/17 03:17:47;;;;;;;3.17;2.80;;;7.70;99.90;;;;;;5047833;28;20300;-70
2023/02/17 03:20:17;;;;;;;3.70;3.40;;;7.70;99.90;;;;;;5044766;28;20200;-70
2023/02/17 03:22:47;;;;;;;3.85;2.80;;;7.70;99.90;;;;;;5042219;28;20558;-70
2023/02/17 03:25:16;;;;;;;3.30;3.00;;;7.70;99.90;;;;;;5047629;28;20234;-70
2023/02/17 03:27:46;;;;;;;4.38;3.25;;;7.70;99.90;;;;;;5066085;28;20640;-70
2023/02/17 03:30:15;;;;;;;3.95;3.58;;;7.70;99.90;;;;;;5051904;28;20247;-70
2023/02/17 03:32:44;;;;;;;4.68;3.83;;;7.70;99.90;;;;;;5046212;28;20702;-70
2023/02/17 03:35:12;;;;;;;4.20;3.20;;;7.80;99.90;;;;;;5045934;28;20218;-70
2023/02/17 03:37:42;;;;;;;4.93;3.42;;;7.70;99.90;;;;;;5048801;28;20196;-70
2023/02/17 03:40:11;;;;;;;4.25;3.90;;;7.70;99.90;;;;;;5044978;28;20305;-70
2023/02/17 03:42:39;;;;;;;3.65;3.35;;;7.80;99.90;;;;;;5048469;28;20190;-70
2023/02/17 03:45:08;;;;;;;3.58;3.20;;;7.70;99.90;;;;;;5049165;28;20492;-70
2023/02/17 03:47:36;;;;;;;3.15;2.85;;;7.70;99.90;;;;;;5049046;28;20280;-70
2023/02/17 03:50:06;;;;;;;4.97;3.47;;;7.80;99.90;;;;;;5046023;28;20334;-70
2023/02/17 03:52:34;;;;;;;3.85;3.20;;;7.80;99.90;;;;;;5047853;28;20218;-70
2023/02/17 03:55:04;;;;;;;3.08;2.80;;;7.80;99.90;;;;;;5044971;28;20301;-70
2023/02/17 03:57:33;;;;;;;3.83;3.25;;;7.80;99.90;;;;;;5047597;28;20586;-70
2023/02/17 04:00:03;;;;;;;3.63;2.67;;;7.70;99.90;;;;;;5045018;28;20355;-70
2023/02/17 04:02:40;;;;;;;3.88;3.35;;;7.80;99.90;;;;;;5064909;28;20283;-70
2023/02/17 04:05:11;;;;;;;3.88;3.53;;;7.80;99.90;;;;;;5044649;28;20230;-70
2023/02/17 04:07:39;;;;;;;3.35;3.05;;;7.80;99.90;;;;;;5045768;28;20198;-70
2023/02/17 04:10:10;;;;;;;4.13;2.72;;;7.80;99.90;;;;;;5038897;28;20678;-70
2023/02/17 04:12:38;;;;;;;4.35;2.95;;;7.80;99.90;;;;;;5039101;28;20203;-70
2023/02/17 04:15:07;;;;;;;3.70;2.90;;;7.80;99.90;;;;;;5055643;28;20245;-70
2023/02/17 04:17:37;;;;;;;2.95;2.65;;;7.80;99.90;;;;;;5037926;28;20240;-70
2023/02/17 04:20:07;;;;;;;3.47;2.90;;;7.80;99.90;;;;;;5045061;28;20191;-70
2023/02/17 04:22:36;;;;;;;3.92;3.40;;;7.80;99.90;;;;;;5047259;28;20249;-70
2023/02/17 04:25:04;;;;;;;3.47;3.17;;;7.80;99.90;;;;;;5048200;28;20948;-70
2023/02/17 04:27:34;;;;;;;3.53;2.90;;;7.80;99.90;;;;;;5044094;28;20555;-70
2023/02/17 04:30:03;;;;;;;4.60;2.97;;;7.80;99.90;;;;;;5042277;28;20539;-70
2023/02/17 04:32:31;;;;;;;3.20;2.90;;;7.80;99.90;;;;;;5050517;28;20594;-70
2023/02/17 04:34:59;;;;;;;2.80;2.60;;;7.80;99.90;;;;;;5048820;28;20279;-70
2023/02/17 04:37:28;;;;;;;3.40;3.10;;;7.80;99.90;;;;;;5050584;28;20313;-70
2023/02/17 04:39:56;;;;;;;3.30;2.53;;;7.80;99.90;;;;;;5050095;28;20839;-70
2023/02/17 04:42:24;;;;;;;3.65;3.33;;;7.80;99.90;;;;;;5051116;28;20229;-70
2023/02/17 04:44:54;;;;;;;3.17;2.88;;;7.80;99.90;;;;;;5066660;28;20750;-70
2023/02/17 04:47:22;;;;;;;3.67;3.38;;;7.80;99.90;;;;;;5046887;28;20326;-70
2023/02/17 04:49:51;;;;;;;3.30;3.00;;;7.80;99.90;;;;;;5041690;28;20211;-70
2023/02/17 04:52:19;;;;;;;3.00;2.75;;;7.80;99.90;;;;;;5047279;28;20253;-70
2023/02/17 04:54:47;;;;;;;2.95;2.63;;;7.80;99.90;;;;;;5048423;28;20639;-70
2023/02/17 04:57:16;;;;;;;3.22;3.00;;;7.80;99.90;;;;;;5046903;28;20648;-70
2023/02/17 04:59:44;;;;;;;3.08;2.85;;;7.80;99.90;;;;;;5049685;28;20204;-70
2023/02/17 05:02:14;;;;;;;3.00;2.70;;;7.80;99.90;;;;;;5049284;28;20313;-70
2023/02/17 05:04:42;;;;;;;3.10;2.80;;;7.80;99.90;;;;;;5049440;28;20473;-70
2023/02/17 05:07:13;;;;;;;3.72;2.95;;;7.80;99.90;;;;;;5048227;28;20526;-70
2023/02/17 05:09:41;;;;;;;2.70;2.50;;;7.80;99.90;;;;;;5046947;28;20282;-70
2023/02/17 05:12:09;;;;;;;2.92;2.63;;;7.80;99.90;;;;;;5041778;28;20309;-70
2023/02/17 05:14:38;;;;;;;2.83;2.63;;;7.80;99.90;;;;;;5046864;28;20285;-70
2023/02/17 05:17:06;;;;;;;3.55;3.25;;;7.80;99.90;;;;;;5048628;28;20738;-70
2023/02/17 05:19:36;;;;;;;3.20;2.90;;;7.80;99.90;;;;;;5046214;28;20226;-70
2023/02/17 05:22:04;;;;;;;3.58;3.28;;;7.90;99.90;;;;;;5039738;28;20344;-70
2023/02/17 05:24:32;;;;;;;3.60;3.30;;;7.80;99.90;;;;;;5047868;28;20234;-70
2023/02/17 05:27:01;;;;;;;2.95;2.67;;;7.80;99.90;;;;;;5063386;28;20299;-70
2023/02/17 05:29:29;;;;;;;2.55;2.35;;;7.90;99.90;;;;;;5047570;28;20218;-70
2023/02/17 05:31:57;;;;;;;2.90;2.65;;;7.90;99.90;;;;;;5047827;28;20264;-70
2023/02/17 05:34:26;;;;;;;3.13;2.80;;;7.90;99.90;;;;;;5045665;28;20218;-69
2023/02/17 05:36:56;;;;;;;4.10;3.10;;;7.90;99.90;;;;;;5045834;28;20254;-70
2023/02/17 05:39:24;;;;;;;3.38;2.75;;;7.90;99.90;;;;;;5049582;28;20210;-70
2023/02/17 05:41:53;;;;;;;3.05;2.75;;;7.90;99.90;;;;;;5066655;28;20603;-70
2023/02/17 05:44:23;;;;;;;4.13;2.95;;;7.90;99.90;;;;;;5045156;28;20213;-70
2023/02/17 05:46:52;;;;;;;3.22;2.92;;;7.90;99.90;;;;;;5048080;28;20344;-70
2023/02/17 05:49:20;;;;;;;3.42;3.00;;;7.90;99.90;;;;;;5061264;28;20201;-70
2023/02/17 05:51:48;;;;;;;2.75;2.53;;;7.90;99.90;;;;;;5067628;28;20229;-70
2023/02/17 05:54:18;;;;;;;2.33;2.10;;;7.90;99.90;;;;;;5048938;28;20204;-70
2023/02/17 05:56:46;;;;;;;2.63;2.42;;;7.90;99.90;;;;;;5045290;28;20233;-70
2023/02/17 05:59:15;;;;;;;3.42;3.13;;;7.90;99.90;;;;;;5047599;28;20619;-70
2023/02/17 06:01:43;;;;;;;2.70;2.50;;;7.90;99.90;;;;;;5043277;28;20252;-70
2023/02/17 06:04:11;;;;;;;3.40;2.50;;;7.90;99.90;;;;;;5040164;28;20197;-70
2023/02/17 06:06:40;;;;;;;3.85;3.45;;;7.90;99.90;;;;;;5049064;28;20474;-70
2023/02/17 06:09:08;;;;;;;3.20;2.90;;;7.90;99.90;;;;;;5042465;28;20289;-70
2023/02/17 06:11:38;;;;;;;3.00;2.77;;;7.90;99.90;;;;;;5047000;28;20222;-70
2023/02/17 06:14:06;;;;;;;3.42;2.88;;;7.90;99.90;;;;;;5043063;28;20450;-70
2023/02/17 06:16:34;;;;;;;4.75;3.55;;;7.90;99.90;;;;;;5064435;28;20234;-70
2023/02/17 06:19:04;;;;;;;4.88;2.42;;;7.90;99.90;;;;;;5065595;28;20214;-70
2023/02/17 06:21:33;;;;;;;2.70;2.47;;;7.90;99.90;;;;;;5047715;28;20245;-70
2023/02/17 06:24:01;;;;;;;2.80;2.33;;;7.90;99.90;;;;;;5045703;28;20838;-70
2023/02/17 06:26:29;;;;;;;3.75;2.50;;;7.90;99.90;;;;;;5047117;28;20785;-70
2023/02/17 06:28:59;;;;;;;4.43;3.03;;;7.90;99.90;;;;;;5036364;28;20282;-70
2023/02/17 06:31:28;;;;;;;3.38;2.20;;;7.90;99.90;;;;;;5043871;28;20222;-70
2023/02/17 06:33:57;;;;;;;2.87;2.67;;;7.90;99.90;;;;;;5051638;28;20229;-69
2023/02/17 06:36:25;;;;;;;3.25;2.95;;;7.90;99.90;;;;;;5045586;28;20469;-70
2023/02/17 06:38:54;;;;;;;3.20;2.90;;;7.90;99.90;;;;;;5048796;28;20205;-70
2023/02/17 06:41:22;;;;;;;2.50;2.20;;;7.90;99.90;;;;;;5041687;28;20564;-70
2023/02/17 06:43:50;;;;;;;2.73;2.40;;;7.90;99.90;;;;;;5058025;28;20536;-69
2023/02/17 06:46:20;;;;;;;2.90;2.60;;;7.90;99.90;;;;;;5048019;28;20862;-70
2023/02/17 06:48:48;;;;;;;2.80;2.50;;;7.90;99.90;;;;;;5037932;28;20444;-70
2023/02/17 06:51:17;;;;;;;2.60;2.33;;;7.90;99.90;;;;;;5064481;28;21004;-70
2023/02/17 06:53:45;;;;;;;3.50;3.20;;;7.90;99.90;;;;;;5065515;28;20933;-70
2023/02/17 06:56:13;;;;;;;2.83;2.58;;;7.90;99.90;;;;;;5047418;28;20475;-69
2023/02/17 06:58:41;;;;;;;3.00;2.63;;;7.90;99.90;;;;;;5043083;28;20686;-70
2023/02/17 07:01:16;;;;;;;2.97;2.70;;;7.90;99.90;;;;;;5045614;28;20482;-70
2023/02/17 07:03:46;;;;;;;3.07;1.93;;;7.90;99.90;;;;;;5042970;28;20812;-70
2023/02/17 07:06:15;;;;;;;2.57;2.33;;;7.90;99.90;;;;;;5046304;28;20476;-70
2023/02/17 07:08:43;;;;;;;3.05;2.55;;;7.90;99.90;;;;;;5031238;28;20572;-70
2023/02/17 07:11:13;;;;;;;2.40;2.20;;;7.90;99.90;;;;;;5052551;28;20756;-70
2023/02/17 07:13:42;;;;;;;3.07;2.77;;;7.90;99.90;;;;;;5062872;28;20450;-69
2023/02/17 07:16:12;;;;;;;2.65;2.45;;;7.90;99.90;;;;;;5046469;28;20449;-70
2023/02/17 07:18:41;;;;;;;3.40;2.88;;;8.00;99.90;;;;;;5039742;28;20717;-69
2023/02/17 07:21:11;;;;;;;2.47;2.28;;;7.90;99.90;;;;;;5052602;28;20307;-70
2023/02/17 07:23:39;;;;;;;3.05;2.72;;;7.90;99.90;;;;;;5037470;28;20221;-70
2023/02/17 07:26:11;;;;;;;2.80;2.27;;;7.90;99.90;;;;;;5039120;28;20217;-70
2023/02/17 07:28:40;;;;;;;2.00;1.83;;;8.00;99.90;;;;;;5061110;28;20449;-70
2023/02/17 07:31:10;;;;;;;2.60;2.40;;;8.00;99.90;;;;;;5035888;28;20477;-69
2023/02/17 07:33:39;;;;;;;2.95;2.42;;;8.00;99.90;;;;;;5056987;28;20186;-70
2023/02/17 07:36:08;;;;;;;6.03;4.38;;;8.00;99.90;;;;;;5045629;28;20219;-70
2023/02/17 07:38:38;;;;;;;2.95;2.55;;;8.00;99.90;;;;;;5046612;28;20691;-70
2023/02/17 07:41:08;;;;;;;2.57;1.90;;;8.00;99.90;;;;;;5063149;28;20810;-70
2023/02/17 07:43:36;;;;;;;2.77;2.50;;;8.00;99.90;;;;;;5060512;28;20479;-70
2023/02/17 07:46:06;;;;;;;2.97;2.67;;;8.00;99.90;;;;;;5038544;28;20587;-70
2023/02/17 07:48:35;;;;;;;5.15;2.80;;;8.00;99.90;;;;;;5060254;28;20203;-69
2023/02/17 07:51:09;;;;;;;3.53;2.80;;;8.00;99.90;;;;;;5045747;28;20226;-70
2023/02/17 07:53:38;;;;;;;3.37;3.07;;;8.00;99.90;;;;;;5065813;28;20209;-70
2023/02/17 07:56:09;;;;;;;2.55;2.35;;;8.00;99.90;;;;;;5048352;28;20550;-70
2023/02/17 07:58:40;;;;;;;3.20;2.65;;;8.00;99.90;;;;;;5058800;28;20716;-70
2023/02/17 08:01:11;;;;;;;2.28;2.08;;;8.00;99.90;;;;;;5043135;28;20226;-70
2023/02/17 08:03:40;;;;;;;2.78;2.58;;;8.00;99.90;;;;;;5061210;28;20202;-70
2023/02/17 08:06:11;;;;;;;2.70;2.47;;;8.00;99.90;;;;;;5035333;28;20233;-70
2023/02/17 08:14:17;;;;;;;3.40;1.95;;;8.00;99.90;;;;;;5045408;28;20862;-70
2023/02/17 08:16:45;;;;;;;3.07;2.27;;;8.00;99.90;;;;;;5060303;28;20214;-70
2023/02/17 08:19:13;;;;;;;2.78;2.45;;;8.00;99.90;;;;;;5045642;28;20445;-69
2023/02/17 08:21:42;;;;;;;2.97;2.55;;;8.00;99.90;;;;;;5047126;28;20226;-70
2023/02/17 08:24:12;;;;;;;2.53;2.33;;;8.10;99.90;;;;;;5055877;28;20194;-70
2023/02/17 08:26:41;;;;;;;2.35;2.15;;;8.00;99.90;;;;;;5054039;28;20227;-70
2023/02/17 08:29:09;;;;;;;3.08;1.90;;;8.10;99.90;;;;;;5039061;28;20205;-70
2023/02/17 08:31:38;;;;;;;2.80;2.60;;;8.00;99.90;;;;;;5045744;28;20778;-70
2023/02/17 08:34:08;;;;;;;2.13;1.90;;;8.10;99.90;;;;;;5049519;28;20453;-69
2023/02/17 08:36:37;;;;;;;2.97;2.60;;;8.10;99.90;;;;;;5042555;28;20458;-69
2023/02/17 08:39:06;;;;;;;2.70;2.15;;;8.10;99.90;;;;;;5046718;28;20519;-69
2023/02/17 08:41:38;;;;;;;2.20;2.00;;;8.10;99.90;;;;;;5042075;28;20219;-69
2023/02/17 08:44:09;;;;;;;2.17;1.93;;;8.10;99.90;;;;;;5042957;28;20214;-69
2023/02/17 08:46:38;;;;;;;2.78;2.22;;;8.10;99.90;;;;;;5033217;28;20506;-70
2023/02/17 08:49:07;;;;;;;2.43;1.90;;;8.10;99.90;;;;;;5040102;28;20209;-70
2023/02/17 08:51:36;;;;;;;2.47;2.22;;;8.10;99.90;;;;;;5042526;28;20976;-70
2023/02/17 08:54:07;;;;;;;2.42;2.08;;;8.10;99.90;;;;;;5065669;28;20214;-69
2023/02/17 08:56:38;;;;;;;2.60;2.40;;;8.10;99.90;;;;;;5039917;28;20306;-70
2023/02/17 08:59:08;;;;;;;2.30;2.10;;;8.10;99.90;;;;;;5041185;28;20202;-70
2023/02/17 09:01:37;;;;;;;2.90;2.58;;;8.10;99.90;;;;;;5043483;28;20214;-70
2023/02/17 09:04:08;;;;;;;2.13;1.93;;;8.10;99.90;;;;;;5042340;28;20567;-70
2023/02/17 09:06:39;;;;;;;3.27;2.20;;;8.10;99.90;;;;;;5063139;28;20479;-70
2023/02/17 09:09:09;;;;;;;1.97;1.83;;;8.10;99.90;;;;;;5044552;28;20453;-69
2023/02/17 09:11:39;;;;;;;3.83;2.03;;;8.10;99.90;;;;;;5047256;28;20554;-70
2023/02/17 09:14:08;;;;;;;2.33;2.13;;;8.10;99.90;;;;;;5046656;28;20248;-70
2023/02/17 09:16:37;;;;;;;2.20;1.90;;;8.10;99.90;;;;;;5043323;28;20477;-70
2023/02/17 09:19:08;;;;;;;1.90;1.80;;;8.10;99.90;;;;;;5037625;28;20513;-70
2023/02/17 09:21:37;;;;;;;2.20;2.00;;;8.10;99.90;;;;;;5063016;28;20469;-70
2023/02/17 09:24:06;;;;;;;1.63;1.50;;;8.10;99.90;;;;;;5067403;28;20668;-70
2023/02/17 09:26:36;;;;;;;2.10;1.90;;;8.10;99.90;;;;;;5047525;28;20479;-70
2023/02/17 09:29:07;;;;;;;2.63;2.22;;;8.20;99.90;;;;;;5050251;28;20519;-70
2023/02/17 09:31:37;;;;;;;2.20;1.90;;;8.10;99.90;;;;;;5067396;28;20305;-70
2023/02/17 09:34:06;;;;;;;1.98;1.50;;;8.10;99.90;;;;;;5063775;28;20444;-70
2023/02/17 09:36:41;;;;;;;2.07;1.80;;;8.10;99.90;;;;;;5043136;28;20337;-70
2023/02/17 09:39:12;;;;;;;1.87;1.60;;;8.10;99.90;;;;;;5068072;28;20432;-70
2023/02/17 09:41:46;;;;;;;2.22;2.03;;;8.10;99.90;;;;;;5057083;28;20891;-70
2023/02/17 09:44:22;;;;;;;1.83;1.73;;;8.20;99.90;;;;;;5046844;28;20230;-72
2023/02/17 09:47:02;;;;;;;1.90;1.53;;;8.20;99.90;;;;;;5040248;28;20465;-72
2023/02/17 09:49:39;;;;;;;2.45;1.90;;;8.20;99.90;;;;;;5046216;28;20437;-72
2023/02/17 09:52:14;;;;;;;1.90;1.80;;;8.20;99.90;;;;;;5066219;28;20729;-72
2023/02/17 09:54:54;;;;;;;1.90;1.63;;;8.20;99.90;;;;;;5067762;28;20502;-72
2023/02/17 09:57:28;;;;;;;2.00;1.43;;;8.20;99.90;;;;;;5053543;28;20480;-72
2023/02/17 10:00:04;;;;;;;1.40;1.30;;;8.20;99.90;;;;;;5053199;28;20970;-72
2023/02/17 10:02:46;;;;;;;2.73;1.90;;;8.20;99.90;;;;;;5066571;28;20463;-72
2023/02/17 10:05:22;;;;;;;2.67;2.15;;;8.20;99.90;;;;;;5041806;28;20461;-72
2023/02/17 10:08:00;;;;;;;2.93;2.10;;;8.20;99.90;;;;;;5048242;28;20377;-72
2023/02/17 10:10:35;;;;;;;2.70;1.80;;;8.20;99.90;;;;;;5042244;28;20515;-72
2023/02/17 10:13:08;;;;;;;1.73;1.60;;;8.30;99.90;;;;;;5046979;28;20444;-72
2023/02/17 10:15:41;;;;;;;1.93;1.57;;;8.30;99.90;;;;;;5047175;28;20472;-72
2023/02/17 10:18:16;;;;;;;1.83;1.40;;;8.30;99.90;;;;;;5046288;28;20439;-72
2023/02/17 10:20:52;;;;;;;1.67;1.57;;;8.30;99.90;;;;;;5056165;28;20444;-72
2023/02/17 10:23:23;;;;;;;1.60;1.50;;;8.30;99.90;;;;;;5040839;28;20449;-72
2023/02/17 10:26:15;;;;;;;1.67;1.57;;;8.30;99.90;;;;;;5046824;28;20568;-72
2023/02/17 10:28:51;;;;;;;1.33;1.20;;;8.30;99.90;;;;;;5036605;28;20468;-72
2023/02/17 10:31:33;;;;;;;1.80;1.70;;;8.30;99.90;;;;;;5038843;28;20512;-72
2023/02/17 10:34:05;;;;;;;2.50;1.90;;;8.30;99.90;;;;;;5055543;28;20445;-72
2023/02/17 10:36:50;;;;;;;1.70;1.50;;;8.30;99.90;;;;;;5046810;28;21049;-72
2023/02/17 10:39:37;;;;;;;2.10;1.53;;;8.30;99.90;;;;;;5040520;28;20432;-72
2023/02/17 10:42:08;;;;;;;1.77;1.40;;;8.30;99.90;;;;;;5045285;28;20765;-72
2023/02/17 10:44:38;;;;;;;2.40;1.50;;;8.40;99.90;;;;;;5044341;28;20849;-72
2023/02/17 10:47:11;;;;;;;1.50;1.40;;;8.30;99.90;;;;;;5040695;28;20499;-72
2023/02/17 10:49:45;;;;;;;1.50;1.40;;;8.40;99.90;;;;;;5065284;28;21061;-72
2023/02/17 10:52:18;;;;;;;1.37;1.27;;;8.40;99.90;;;;;;5060993;28;20492;-72
2023/02/17 10:54:52;;;;;;;1.20;1.10;;;8.40;99.90;;;;;;5063236;28;20485;-72
2023/02/17 10:57:26;;;;;;;2.27;1.43;;;8.40;99.90;;;;;;5046407;28;20842;-72
2023/02/17 10:59:56;;;;;;;1.60;1.50;;;8.40;99.90;;;;;;5051373;28;20460;-72
2023/02/17 11:02:36;;;;;;;1.70;1.53;;;8.40;99.90;;;;;;5044138;28;20480;-72
2023/02/17 11:05:06;;;;;;;1.80;1.70;;;8.40;99.90;;;;;;5038170;28;20490;-72
2023/02/17 11:07:40;;;;;;;2.30;1.60;;;8.40;99.90;;;;;;5047005;28;20476;-72
2023/02/17 11:10:22;;;;;;;1.67;1.47;;;8.40;99.90;;;;;;5046453;28;20835;-72
2023/02/17 11:12:51;;;;;;;1.83;1.40;;;8.40;99.90;;;;;;5047739;28;20475;-72
2023/02/17 11:15:24;;;;;;;1.63;1.40;;;8.50;99.90;;;;;;5040310;28;20456;-72
2023/02/17 11:17:56;;;;;;;2.10;1.60;;;8.50;99.90;;;;;;5048832;28;20933;-72
2023/02/17 11:20:37;;;;;;;2.87;1.70;;;8.40;99.90;;;;;;5055970;28;20452;-72
2023/02/17 11:23:21;;;;;;;2.83;2.00;;;8.40;99.90;;;;;;5068648;28;20814;-72
2023/02/17 11:26:00;;;;;;;1.60;1.40;;;8.50;99.90;;;;;;5044911;28;21095;-72
2023/02/17 11:28:29;;;;;;;1.60;1.50;;;8.50;99.90;;;;;;5045473;28;20462;-72
2023/02/17 11:31:03;;;;;;;2.23;1.47;;;8.50;99.90;;;;;;5029237;28;20516;-72
2023/02/17 11:33:37;;;;;;;1.70;1.20;;;8.50;99.90;;;;;;5043509;28;20445;-72
2023/02/17 11:36:12;;;;;;;1.77;1.60;;;8.50;99.90;;;;;;5059994;28;20469;-72
2023/02/17 11:38:46;;;;;;;1.40;1.30;;;8.50;99.90;;;;;;5045624;28;20449;-72
2023/02/17 11:41:16;;;;;;;2.07;1.20;;;8.50;99.90;;;;;;5033893;28;21003;-72
2023/02/17 11:43:53;;;;;;;1.13;1.03;;;8.50;99.90;;;;;;5045493;28;20466;-72
2023/02/17 11:46:29;;;;;;;1.43;1.33;;;8.50;99.90;;;;;;5039897;28;20479;-72
2023/02/17 11:49:29;;;;;;;1.60;1.23;;;8.50;99.90;;;;;;5058900;28;20477;-72
2023/02/17 11:52:13;;;;;;;1.80;1.70;;;8.50;99.90;;;;;;5060211;28;20471;-72
2023/02/17 11:55:02;;;;;;;2.03;1.83;;;8.50;99.90;;;;;;5066322;28;20531;-72
2023/02/17 11:57:39;;;;;;;2.10;1.90;;;8.60;99.90;;;;;;5054966;28;20472;-72
2023/02/17 12:00:17;;;;;;;2.03;1.93;;;8.60;99.90;;;;;;5048466;28;20448;-72
2023/02/17 12:03:08;;;;;;;1.83;1.73;;;8.60;99.90;;;;;;5071432;28;20448;-72
2023/02/17 12:05:52;;;;;;;2.17;1.70;;;8.60;99.90;;;;;;5064895;28;20536;-72
2023/02/17 12:08:30;;;;;;;1.70;1.60;;;8.60;99.90;;;;;;5044117;28;20466;-72
2023/02/17 12:11:10;;;;;;;1.97;1.87;;;8.60;99.90;;;;;;5059591;28;20455;-72
2023/02/17 12:13:50;;;;;;;1.40;1.30;;;8.60;99.90;;;;;;5042358;28;20501;-70
2023/02/17 12:16:31;;;;;;;3.00;1.80;;;8.60;99.90;;;;;;5044136;28;20499;-70
2023/02/17 12:19:10;;;;;;;1.47;1.37;;;8.60;99.90;;;;;;5043367;28;20807;-70
2023/02/17 12:21:52;;;;;;;1.90;1.47;;;8.60;99.90;;;;;;5038144;28;20560;-70
2023/02/17 12:24:45;;;;;;;2.43;1.43;;;8.60;99.90;;;;;;5061914;28;20437;-70
2023/02/17 12:27:34;;;;;;;1.63;1.47;;;8.60;99.90;;;;;;5019740;28;20833;-70
2023/02/17 12:30:21;;;;;;;2.40;2.13;;;8.60;99.90;;;;;;5061141;28;20429;-70
2023/02/17 12:33:31;;;;;;;1.43;1.33;;;8.60;99.90;;;;;;5044410;28;20461;-70
2023/02/17 12:36:03;;;;;;;1.20;1.10;;;8.70;99.90;;;;;;5038047;28;20500;-70
2023/02/17 12:38:39;;;;;;;1.50;1.40;;;8.60;99.90;;;;;;5047925;28;20939;-70
2023/02/17 12:41:13;;;;;;;1.17;1.07;;;8.60;99.90;;;;;;5047549;28;20450;-70
2023/02/17 12:43:47;;;;;;;1.40;1.30;;;8.60;99.90;;;;;;5057242;28;20440;-70
2023/02/17 12:46:22;;;;;;;1.23;1.17;;;8.60;99.90;;;;;;5063128;28;20470;-70
2023/02/17 12:48:55;;;;;;;1.80;1.70;;;8.60;99.90;;;;;;5044384;28;20508;-70
2023/02/17 12:51:29;;;;;;;1.43;1.33;;;8.60;99.90;;;;;;5050407;28;20852;-70
2023/02/17 12:54:06;;;;;;;1.70;1.60;;;8.70;99.90;;;;;;5051927;28;20431;-70
2023/02/17 12:56:58;;;;;;;1.60;1.50;;;8.70;99.90;;;;;;5050010;28;21092;-70
2023/02/17 12:59:32;;;;;;;1.10;0.97;;;8.70;99.90;;;;;;5064709;28;20457;-70
2023/02/17 13:02:06;;;;;;;1.47;1.20;;;8.70;99.90;;;;;;5046275;28;20470;-70
2023/02/17 13:04:36;;;;;;;1.50;1.40;;;8.70;99.90;;;;;;5061231;28;20437;-70
2023/02/17 13:07:33;;;;;;;1.40;1.30;;;8.70;99.90;;;;;;5042187;28;20476;-70
2023/02/17 13:10:05;;;;;;;1.53;1.33;;;8.70;99.90;;;;;;5045770;28;20465;-70
2023/02/17 13:12:43;;;;;;;2.20;1.80;;;8.70;99.90;;;;;;5050178;28;20460;-70
2023/02/17 13:15:29;;;;;;;1.43;1.33;;;8.70;99.90;;;;;;5056097;28;20452;-70
2023/02/17 13:18:01;;;;;;;1.30;1.20;;;8.70;99.90;;;;;;5066667;28;20430;-70
2023/02/17 13:20:57;;;;;;;1.93;1.23;;;8.80;99.90;;;;;;5045705;28;20443;-70
2023/02/17 13:23:41;;;;;;;1.43;1.17;;;8.80;99.90;;;;;;5061831;28;20452;-70
2023/02/17 13:26:26;;;;;;;1.27;1.17;;;8.80;99.90;;;;;;5036827;28;20476;-70
2023/02/17 13:29:10;;;;;;;1.37;1.20;;;8.80;99.90;;;;;;5065647;28;20465;-70
2023/02/17 13:31:52;;;;;;;1.80;1.20;;;8.80;99.90;;;;;;5042324;28;21003;-70